createdAt,value
2019-03-22T00:00:40.397Z,14.87
2019-03-22T00:05:32.045Z,14.93
2019-03-22T00:10:22.941Z,13.53
2019-03-22T00:15:13.841Z,16.30
2019-03-22T00:20:05.542Z,16.92
2019-03-22T00:24:56.416Z,16.77
2019-03-22T00:29:47.329Z,15.90
2019-03-22T00:34:38.237Z,14.37
2019-03-22T00:39:29.900Z,14.27
2019-03-22T00:44:20.789Z,14.87
2019-03-22T00:49:12.429Z,13.83
2019-03-22T00:54:11.066Z,15.95
2019-03-22T00:59:01.962Z,14.00
2019-03-22T01:03:52.863Z,12.70
2019-03-22T01:08:44.524Z,14.90
2019-03-22T01:13:35.438Z,12.50
2019-03-22T01:18:26.340Z,13.50
2019-03-22T01:23:17.981Z,12.57
2019-03-22T01:28:09.613Z,12.73
2019-03-22T01:33:00.523Z,14.05
2019-03-22T01:37:52.164Z,13.13
2019-03-22T01:42:43.791Z,13.93
2019-03-22T01:47:35.415Z,12.83
2019-03-22T01:52:26.314Z,12.23
2019-03-22T01:57:17.772Z,12.07
2019-03-22T02:02:09.471Z,13.20
2019-03-22T02:07:00.377Z,13.20
2019-03-22T02:11:51.280Z,13.53
2019-03-22T02:16:42.180Z,13.37
2019-03-22T02:21:33.810Z,13.60
2019-03-22T02:26:25.464Z,12.83
2019-03-22T02:31:16.378Z,12.50
2019-03-22T02:36:07.293Z,13.23
2019-03-22T02:40:58.256Z,11.87
2019-03-22T02:45:49.193Z,13.87
2019-03-22T02:50:41.587Z,13.10
2019-03-22T02:55:33.242Z,12.00
2019-03-22T03:00:24.154Z,14.07
2019-03-22T03:05:15.051Z,11.70
2019-03-22T03:10:06.716Z,13.13
2019-03-22T03:14:57.617Z,11.60
2019-03-22T03:19:48.517Z,12.27
2019-03-22T03:24:40.152Z,12.07
2019-03-22T03:29:31.799Z,13.80
2019-03-22T03:34:23.497Z,12.97
2019-03-22T03:39:14.400Z,14.45
2019-03-22T03:44:05.282Z,12.97
2019-03-22T03:48:56.199Z,13.10
2019-03-22T03:53:47.160Z,12.50
2019-03-22T03:58:51.760Z,13.90
2019-03-22T04:03:28.961Z,13.57
2019-03-22T04:08:20.631Z,14.43
2019-03-22T04:13:11.572Z,14.27
2019-03-22T04:18:03.204Z,13.90
2019-03-22T04:22:54.111Z,12.90
2019-03-22T04:27:45.019Z,13.70
2019-03-22T04:32:35.911Z,13.20
2019-03-22T04:37:26.843Z,13.10
2019-03-22T04:42:17.752Z,13.77
2019-03-22T04:47:08.693Z,14.70
2019-03-22T04:51:59.582Z,12.95
2019-03-22T04:56:51.244Z,13.40
2019-03-22T05:01:42.133Z,13.10
2019-03-22T05:06:33.754Z,14.57
2019-03-22T05:11:24.659Z,14.60
2019-03-22T05:16:15.554Z,13.60
2019-03-22T05:21:06.446Z,13.80
2019-03-22T05:25:57.356Z,15.70
2019-03-22T05:36:07.054Z,15.10
2019-03-22T05:40:57.958Z,13.97
2019-03-22T05:45:49.631Z,13.37
2019-03-22T05:50:40.517Z,13.60
2019-03-22T05:55:32.152Z,13.83
2019-03-22T06:00:23.053Z,15.13
2019-03-22T06:05:14.719Z,15.53
2019-03-22T06:10:05.643Z,15.38
2019-03-22T06:14:56.536Z,14.73
2019-03-22T07:06:02.746Z,16.80
2019-03-22T07:10:53.654Z,14.87
2019-03-22T07:15:44.564Z,19.00
2019-03-22T07:20:35.462Z,17.40
2019-03-22T07:25:27.089Z,16.60
2019-03-22T07:30:19.362Z,15.33
2019-03-22T07:35:09.664Z,15.03
2019-03-22T07:40:01.305Z,15.33
2019-03-22T07:44:52.245Z,14.00
2019-03-22T07:49:43.153Z,15.80
2019-03-22T07:54:34.070Z,17.70
2019-03-22T07:59:24.979Z,18.70
2019-03-22T08:04:16.641Z,16.40
2019-03-22T08:09:07.583Z,16.10
2019-03-22T08:13:58.502Z,16.37
2019-03-22T08:18:49.389Z,16.80
2019-03-22T08:23:40.407Z,16.77
2019-03-22T08:28:31.370Z,23.53
2019-03-22T08:33:22.372Z,22.70
2019-03-22T08:38:13.266Z,19.70
2019-03-22T08:43:04.376Z,20.00
2019-03-22T08:47:56.023Z,21.13
2019-03-22T08:52:46.945Z,21.10
2019-03-22T08:57:37.906Z,19.13
2019-03-22T09:02:32.280Z,25.80
2019-03-22T09:07:24.459Z,24.70
2019-03-22T09:12:14.116Z,22.13
2019-03-22T09:17:05.063Z,21.70
2019-03-22T09:21:56.042Z,23.60
2019-03-22T09:26:48.184Z,20.83
2019-03-22T09:31:39.406Z,21.03
2019-03-22T09:36:30.307Z,25.55
2019-03-22T09:41:21.956Z,27.40
2019-03-22T09:46:12.862Z,26.23
2019-03-22T09:51:04.608Z,25.47
2019-03-22T09:55:55.769Z,27.43
2019-03-22T10:00:48.516Z,24.83
2019-03-22T10:05:37.624Z,24.50
2019-03-22T10:10:28.529Z,28.27
2019-03-22T10:15:19.449Z,29.60
2019-03-22T10:20:10.373Z,26.70
2019-03-22T10:25:01.253Z,27.03
2019-03-22T10:29:52.279Z,25.43
2019-03-22T10:34:43.232Z,26.07
2019-03-22T10:39:34.149Z,26.50
2019-03-22T10:44:25.788Z,31.40
2019-03-22T10:49:16.699Z,30.90
2019-03-22T10:54:07.581Z,27.33
2019-03-22T10:58:58.697Z,28.00
2019-03-22T11:03:50.389Z,26.73
2019-03-22T11:08:41.291Z,27.00
2019-03-22T11:13:32.459Z,25.50
2019-03-22T11:18:23.373Z,31.03
2019-03-22T11:23:14.300Z,31.17
2019-03-22T11:28:05.935Z,28.53
2019-03-22T11:32:57.577Z,27.33
2019-03-22T11:37:49.228Z,26.63
2019-03-22T11:42:40.117Z,27.27
2019-03-22T11:47:31.035Z,25.63
2019-03-22T11:52:21.947Z,29.97
2019-03-22T11:57:12.853Z,33.57
2019-03-22T12:02:03.756Z,29.33
2019-03-22T12:06:55.402Z,28.30
2019-03-22T12:11:47.029Z,27.83
2019-03-22T12:16:37.917Z,26.10
2019-03-22T12:21:28.810Z,31.60
2019-03-22T12:26:20.446Z,30.00
2019-03-22T12:31:11.339Z,28.40
2019-03-22T12:36:02.246Z,25.97
2019-03-22T12:40:53.148Z,26.70
2019-03-22T12:45:44.029Z,24.47
2019-03-22T12:50:35.676Z,23.60
2019-03-22T12:55:26.573Z,29.53
2019-03-22T13:00:21.134Z,27.50
2019-03-22T13:05:12.030Z,25.00
2019-03-22T13:10:02.923Z,25.83
2019-03-22T13:14:56.631Z,22.87
2019-03-22T13:19:45.497Z,23.07
2019-03-22T13:24:36.402Z,30.65
2019-03-22T13:29:27.288Z,28.67
2019-03-22T13:34:18.235Z,26.73
2019-03-22T13:39:09.147Z,23.80
2019-03-22T13:44:00.779Z,21.50
2019-03-22T13:48:52.427Z,21.10
2019-03-22T13:53:43.339Z,28.67
2019-03-22T13:58:34.974Z,25.70
2019-03-22T14:03:26.618Z,25.77
2019-03-22T14:08:17.569Z,23.00
2019-03-22T14:13:08.483Z,20.30
2019-03-22T14:17:59.372Z,23.33
2019-03-22T14:22:50.283Z,25.42
2019-03-22T14:27:41.957Z,21.83
2019-03-22T14:32:32.864Z,22.17
2019-03-22T14:37:23.759Z,22.33
2019-03-22T14:42:15.494Z,21.67
2019-03-22T14:47:07.121Z,20.37
2019-03-22T14:51:58.752Z,20.57
2019-03-22T14:56:50.396Z,20.60
2019-03-22T15:01:42.028Z,21.98
2019-03-22T15:06:33.676Z,19.87
2019-03-22T15:11:25.301Z,18.80
2019-03-22T15:16:19.853Z,18.30
2019-03-22T15:21:14.607Z,20.12
2019-03-22T15:26:06.254Z,18.53
2019-03-22T15:30:59.957Z,20.77
2019-03-22T15:35:56.913Z,19.40
2019-03-22T15:40:47.833Z,19.07
2019-03-22T15:45:38.718Z,19.33
2019-03-22T15:50:29.600Z,21.80
2019-03-22T15:55:20.537Z,21.08
2019-03-22T16:00:13.325Z,19.70
2019-03-22T16:05:04.202Z,20.70
2019-03-22T16:09:55.096Z,20.00
2019-03-22T16:14:46.003Z,19.07
2019-03-22T16:19:36.911Z,23.20
2019-03-22T16:24:27.792Z,22.67
2019-03-22T16:29:18.709Z,20.50
2019-03-22T16:34:09.606Z,20.30
2019-03-22T16:39:00.493Z,21.37
2019-03-22T16:43:51.387Z,19.90
2019-03-22T16:48:43.021Z,23.60
2019-03-22T16:53:34.667Z,23.30
2019-03-22T16:58:26.368Z,20.07
2019-03-22T17:03:17.260Z,20.20
2019-03-22T17:08:08.928Z,20.97
2019-03-22T17:12:59.831Z,19.50
2019-03-22T17:17:50.732Z,21.10
2019-03-22T17:22:41.624Z,21.55
2019-03-22T17:27:32.522Z,18.47
2019-03-22T17:32:24.172Z,17.07
2019-03-22T17:37:15.915Z,18.07
2019-03-22T17:42:07.809Z,18.30
2019-03-22T17:46:59.500Z,21.10
2019-03-22T17:51:50.496Z,17.30
2019-03-22T17:56:42.224Z,17.67
2019-03-22T18:01:33.215Z,16.27
2019-03-22T18:06:24.097Z,18.23
2019-03-22T18:11:15.066Z,17.37
2019-03-22T18:16:05.956Z,19.20
2019-03-22T18:20:56.848Z,18.57
2019-03-22T18:25:47.730Z,17.20
2019-03-22T18:30:38.630Z,15.53
2019-03-22T18:35:29.567Z,17.73
2019-03-22T18:40:21.940Z,16.10
2019-03-22T18:45:13.599Z,15.97
2019-03-22T18:50:05.974Z,19.45
2019-03-22T18:54:55.424Z,19.48
2019-03-22T18:59:46.329Z,16.87
2019-03-22T19:04:43.858Z,17.50
2019-03-22T19:09:28.888Z,15.50
2019-03-22T19:14:20.562Z,16.57
2019-03-22T19:19:11.448Z,16.10
2019-03-22T19:24:03.066Z,17.13
2019-03-22T19:28:53.945Z,18.85
2019-03-22T19:33:44.837Z,17.03
2019-03-22T19:38:35.756Z,17.13
2019-03-22T19:43:26.662Z,15.73
2019-03-22T19:48:17.559Z,17.60
2019-03-22T19:53:09.242Z,16.87
2019-03-22T19:58:00.147Z,15.33
2019-03-22T20:02:51.046Z,19.90
2019-03-22T20:07:42.676Z,16.87
2019-03-22T20:12:34.311Z,17.43
2019-03-22T20:17:25.956Z,18.30
2019-03-22T20:22:17.592Z,20.30
2019-03-22T20:27:09.250Z,18.90
2019-03-22T20:32:00.132Z,21.70
2019-03-22T20:36:51.029Z,21.80
2019-03-22T20:41:41.931Z,19.80
2019-03-22T20:46:32.818Z,19.17
2019-03-22T20:51:23.760Z,18.70
2019-03-22T20:56:14.662Z,18.03
2019-03-22T21:01:05.559Z,19.47
2019-03-22T21:05:57.209Z,21.43
2019-03-22T21:10:48.347Z,20.30
2019-03-22T21:15:39.044Z,19.50
2019-03-22T21:20:29.937Z,17.43
2019-03-22T21:25:21.571Z,19.60
2019-03-22T21:30:13.265Z,19.00
2019-03-22T21:35:04.158Z,19.40
2019-03-22T21:39:55.052Z,22.30
2019-03-22T21:44:46.694Z,19.77
2019-03-22T21:49:38.336Z,19.10
2019-03-22T21:54:29.232Z,19.07
2019-03-22T21:59:20.861Z,18.83
2019-03-22T22:04:12.039Z,21.40
2019-03-22T22:09:02.949Z,19.80
2019-03-22T22:13:53.837Z,20.63
2019-03-22T22:18:45.460Z,19.20
2019-03-22T22:23:36.361Z,22.27
2019-03-22T22:28:27.264Z,20.10
2019-03-22T22:33:18.149Z,19.97
2019-03-22T22:38:09.048Z,21.00
2019-03-22T22:43:00.685Z,21.90
2019-03-22T22:47:52.330Z,18.97
2019-03-22T22:52:43.235Z,23.83
2019-03-22T22:57:34.137Z,24.30
2019-03-22T23:02:25.782Z,21.47
2019-03-22T23:07:17.414Z,20.63
2019-03-22T23:12:09.050Z,20.30
2019-03-22T23:17:00.682Z,20.90
2019-03-22T23:21:51.582Z,20.90
2019-03-22T23:26:43.213Z,20.75
2019-03-22T23:31:34.101Z,20.30
2019-03-22T23:36:24.994Z,25.52
2019-03-22T23:41:16.682Z,21.27
2019-03-22T23:46:07.559Z,21.67
2019-03-22T23:50:58.445Z,22.37
2019-03-22T23:55:49.329Z,22.00
